Lemsford, United Kingdom
Current Conditions -  °F | °C
As of 2:50 AM on Thursday 27 Nov 2014 (Local Time) from EGGW Reporting Station
Moderate Fog Moderate Fog  
Wind Chill: 46°   Ceiling: 200
Heat Index: 46°   Visibility: 0.37mi
Dew Point: 46°   Wind: 2mph
Humidity: 100%   Direction: 40°NE
Pressure: 29.65"   Gusts: NA
Location:  51.8°N, 0.21°W
Report Text: EGGW 270250Z 04002KT 0600 R08/0800 FG OVC002 08/08 Q1004
Loading
Personal Weather Stations






























Interactive Weather Map New forecast layout! Learn more

10-Day Weather Forecast

Advertisements
Track Severe Weather on mobile